createdAt,value
2023-03-26T00:02:31.392Z,14.35
2023-03-26T00:07:28.792Z,14.25
2023-03-26T00:12:29.833Z,14.25
2023-03-26T00:17:27.446Z,14.17
2023-03-26T00:22:26.649Z,14.12
2023-03-26T00:27:25.515Z,14.25
2023-03-26T00:32:27.981Z,14.28
2023-03-26T00:37:26.798Z,14.23
2023-03-26T00:42:24.996Z,13.42
2023-03-26T00:47:25.849Z,12.64
2023-03-26T00:52:23.647Z,12.77
2023-03-26T00:57:35.922Z,12.80
2023-03-26T01:02:34.514Z,12.58
2023-03-26T01:07:35.250Z,12.59
2023-03-26T01:12:34.964Z,12.47
2023-03-26T01:17:34.770Z,12.45
2023-03-26T01:22:32.664Z,12.50
2023-03-26T01:27:39.121Z,12.42
2023-03-26T01:32:39.526Z,12.45
2023-03-26T01:37:52.992Z,12.47
2023-03-26T01:42:54.424Z,12.52
2023-03-26T01:47:57.870Z,12.50
2023-03-26T01:52:56.378Z,12.50
2023-03-26T01:57:54.348Z,12.27
2023-03-26T02:03:18.405Z,12.20
2023-03-26T02:08:31.846Z,12.21
2023-03-26T02:13:29.966Z,12.24
2023-03-26T02:18:36.872Z,12.24
2023-03-26T02:23:37.375Z,12.40
2023-03-26T02:28:37.282Z,12.34
2023-03-26T02:33:34.784Z,12.33
2023-03-26T02:38:35.530Z,12.35
2023-03-26T02:43:34.391Z,12.42
2023-03-26T02:48:36.027Z,12.45
2023-03-26T02:53:46.096Z,12.49
2023-03-26T02:58:59.186Z,12.48
2023-03-26T03:03:56.847Z,12.53
2023-03-26T03:09:06.464Z,12.55
2023-03-26T03:14:04.966Z,12.63
2023-03-26T03:19:06.491Z,12.55
2023-03-26T03:24:14.003Z,12.56
2023-03-26T03:29:15.418Z,12.45
2023-03-26T03:34:14.570Z,12.40
2023-03-26T03:39:22.454Z,12.34
2023-03-26T03:44:23.069Z,12.28
2023-03-26T03:49:23.972Z,12.30
2023-03-26T03:54:22.176Z,12.32
2023-03-26T03:59:35.302Z,12.28
2023-03-26T04:04:37.984Z,12.34
2023-03-26T04:09:49.263Z,12.28
2023-03-26T04:14:54.213Z,12.22
2023-03-26T04:19:53.093Z,12.23
2023-03-26T04:24:57.556Z,12.26
2023-03-26T04:30:02.872Z,12.26
2023-03-26T04:35:06.585Z,12.20
2023-03-26T04:40:14.690Z,12.28
2023-03-26T04:45:31.634Z,12.21
2023-03-26T04:50:32.748Z,12.12
2023-03-26T04:55:36.626Z,12.20
2023-03-26T05:00:41.780Z,12.26
2023-03-26T05:05:47.344Z,12.31
2023-03-26T05:10:44.644Z,12.30
2023-03-26T05:15:49.700Z,12.26
2023-03-26T05:21:02.229Z,12.28
2023-03-26T05:26:03.750Z,12.17
2023-03-26T05:31:07.309Z,12.08
2023-03-26T05:36:15.985Z,12.04
2023-03-26T05:41:18.780Z,12.00
2023-03-26T05:46:27.629Z,11.82
2023-03-26T05:51:31.081Z,11.65
2023-03-26T05:56:54.019Z,11.56
2023-03-26T06:02:23.205Z,11.41
2023-03-26T06:07:44.094Z,11.41
2023-03-26T06:12:45.939Z,11.42
2023-03-26T06:17:47.076Z,11.62
2023-03-26T06:23:06.246Z,11.74
2023-03-26T06:28:35.708Z,11.99
2023-03-26T06:33:54.627Z,12.17
2023-03-26T06:38:53.019Z,12.40
2023-03-26T06:43:54.394Z,12.53
2023-03-26T06:49:15.628Z,12.60
2023-03-26T06:54:35.720Z,12.65
2023-03-26T07:00:12.276Z,12.79
2023-03-26T07:05:31.270Z,12.84
2023-03-26T07:10:54.976Z,12.79
2023-03-26T07:16:16.030Z,12.68
2023-03-26T07:21:29.161Z,13.03
2023-03-26T07:26:31.387Z,13.27
2023-03-26T07:32:16.672Z,13.60
2023-03-26T07:37:55.905Z,13.74
2023-03-26T07:43:28.791Z,13.69
2023-03-26T07:48:51.788Z,13.58
2023-03-26T07:54:06.317Z,13.63
2023-03-26T07:59:26.823Z,13.83
2023-03-26T08:05:03.985Z,13.96
2023-03-26T08:10:51.439Z,14.37
2023-03-26T08:15:59.380Z,14.75
2023-03-26T08:21:09.130Z,14.98
2023-03-26T08:26:14.658Z,15.01
2023-03-26T08:31:15.850Z,15.27
2023-03-26T08:36:16.337Z,15.18
2023-03-26T08:41:24.620Z,15.11
2023-03-26T08:46:30.070Z,15.22
2023-03-26T08:51:28.564Z,15.49
2023-03-26T08:56:52.677Z,15.46
2023-03-26T09:01:56.716Z,15.57
2023-03-26T09:06:54.770Z,15.39
2023-03-26T09:12:10.951Z,15.36
2023-03-26T09:17:16.204Z,15.46
2023-03-26T09:22:22.740Z,15.93
2023-03-26T09:27:47.820Z,16.25
2023-03-26T09:32:45.803Z,16.61
2023-03-26T09:37:56.386Z,16.39
2023-03-26T09:43:27.821Z,16.40
2023-03-26T09:49:05.688Z,16.44
2023-03-26T09:54:20.204Z,17.11
2023-03-26T09:59:24.693Z,17.29
2023-03-26T10:04:54.748Z,17.41
2023-03-26T10:09:54.057Z,17.72
2023-03-26T10:15:01.405Z,17.87
2023-03-26T10:20:12.057Z,17.57
2023-03-26T10:25:13.555Z,17.36
2023-03-26T10:30:26.498Z,17.09
2023-03-26T10:35:43.801Z,16.95
2023-03-26T10:41:01.202Z,16.91
2023-03-26T10:46:15.673Z,16.88
2023-03-26T10:51:15.896Z,16.86
2023-03-26T10:56:14.276Z,16.68
2023-03-26T11:01:12.943Z,16.77
2023-03-26T11:06:18.237Z,16.96
2023-03-26T11:11:19.411Z,17.36
2023-03-26T11:16:27.121Z,17.43
2023-03-26T11:21:28.918Z,17.41
2023-03-26T11:26:36.783Z,17.56
2023-03-26T11:31:57.680Z,17.80
2023-03-26T11:36:56.571Z,17.80
2023-03-26T11:42:26.100Z,17.47
2023-03-26T11:47:30.376Z,17.63
2023-03-26T11:52:28.249Z,17.65
2023-03-26T11:57:30.073Z,17.41
2023-03-26T12:02:35.944Z,17.59
2023-03-26T12:07:34.725Z,17.74
2023-03-26T12:12:41.516Z,17.70
2023-03-26T12:17:46.089Z,17.93
2023-03-26T12:22:53.316Z,17.92
2023-03-26T12:28:07.649Z,18.04
2023-03-26T12:33:06.093Z,17.99
2023-03-26T12:38:23.289Z,17.94
2023-03-26T12:44:56.159Z,18.07
2023-03-26T12:48:44.225Z,18.27
2023-03-26T12:53:51.069Z,18.43
2023-03-26T12:58:51.554Z,18.46
2023-03-26T13:04:09.497Z,18.33
2023-03-26T13:09:22.971Z,18.26
2023-03-26T13:14:32.069Z,18.42
2023-03-26T13:19:40.771Z,18.58
2023-03-26T13:24:40.440Z,18.58
2023-03-26T13:29:57.089Z,18.73
2023-03-26T13:35:08.530Z,18.84
2023-03-26T13:40:25.611Z,18.93
2023-03-26T13:45:30.066Z,18.92
2023-03-26T13:50:29.113Z,19.42
2023-03-26T13:55:30.729Z,20.06
2023-03-26T14:00:38.266Z,21.39
2023-03-26T14:06:09.006Z,21.12
2023-03-26T14:11:26.349Z,21.34
2023-03-26T14:16:27.586Z,21.47
2023-03-26T14:21:25.302Z,22.16
2023-03-26T14:26:29.550Z,22.99
2023-03-26T14:31:30.546Z,22.94
2023-03-26T14:36:41.704Z,22.18
2023-03-26T14:41:47.963Z,21.62
2023-03-26T14:47:10.200Z,21.97
2023-03-26T14:52:18.787Z,21.49
2023-03-26T14:57:37.142Z,21.48
2023-03-26T15:02:40.101Z,20.65
2023-03-26T15:07:53.385Z,20.70
2023-03-26T15:13:05.910Z,21.35
2023-03-26T15:18:14.922Z,21.44
2023-03-26T15:23:40.864Z,21.16
2023-03-26T15:29:01.612Z,20.66
2023-03-26T15:34:12.270Z,19.98
2023-03-26T15:39:32.681Z,19.26
2023-03-26T15:44:36.153Z,18.73
2023-03-26T15:49:44.142Z,18.39
2023-03-26T15:55:16.180Z,18.14
2023-03-26T16:00:22.754Z,17.89
2023-03-26T16:11:45.844Z,17.50
2023-03-26T16:16:54.762Z,17.33
2023-03-26T16:21:56.322Z,17.11
2023-03-26T16:27:01.596Z,16.98
2023-03-26T16:32:11.858Z,16.88
2023-03-26T16:37:38.367Z,16.66
2023-03-26T16:42:44.489Z,16.52
2023-03-26T16:47:45.147Z,16.40
2023-03-26T16:52:44.446Z,16.37
2023-03-26T16:57:45.945Z,16.17
2023-03-26T17:03:30.356Z,15.93
2023-03-26T17:08:47.426Z,15.75
2023-03-26T17:14:07.488Z,15.64
2023-03-26T17:19:05.773Z,15.54
2023-03-26T17:24:24.429Z,15.36
2023-03-26T17:29:38.776Z,15.30
2023-03-26T17:34:57.515Z,15.20
2023-03-26T17:40:12.640Z,15.08
2023-03-26T17:45:38.569Z,15.03
2023-03-26T17:50:50.318Z,14.94
2023-03-26T17:56:05.825Z,14.91
2023-03-26T18:01:31.526Z,14.89
2023-03-26T18:06:32.951Z,14.98
2023-03-26T18:11:52.008Z,14.85
2023-03-26T18:16:53.411Z,14.78
2023-03-26T18:21:58.293Z,14.82
2023-03-26T18:27:13.829Z,14.82
2023-03-26T18:32:19.964Z,14.78
2023-03-26T18:37:31.833Z,14.78
2023-03-26T18:42:30.484Z,14.77
2023-03-26T18:47:31.296Z,14.71
2023-03-26T18:52:30.622Z,14.77
2023-03-26T18:57:31.565Z,14.87
2023-03-26T19:02:35.192Z,15.02
2023-03-26T19:07:36.758Z,15.03
2023-03-26T19:12:48.365Z,15.06
2023-03-26T19:17:53.347Z,15.05
2023-03-26T19:23:03.985Z,14.97
2023-03-26T19:28:01.742Z,14.90
2023-03-26T19:45:59.624Z,14.82
2023-03-26T19:56:19.793Z,14.67
2023-03-26T20:01:28.175Z,14.47
2023-03-26T20:06:43.764Z,14.27
2023-03-26T20:11:58.081Z,14.36
2023-03-26T20:16:59.716Z,14.37
2023-03-26T20:22:04.823Z,14.28
2023-03-26T20:27:04.040Z,14.24
2023-03-26T20:32:38.309Z,14.04
2023-03-26T20:37:40.052Z,13.94
2023-03-26T20:42:40.270Z,13.88
2023-03-26T20:47:40.223Z,13.74
2023-03-26T20:52:42.905Z,13.83
2023-03-26T20:57:43.017Z,13.78
2023-03-26T21:02:44.804Z,13.70
2023-03-26T21:07:46.172Z,13.49
2023-03-26T21:12:50.665Z,13.19
2023-03-26T21:17:48.867Z,13.13
2023-03-26T21:22:52.971Z,13.00
2023-03-26T21:28:08.970Z,12.96
2023-03-26T21:33:06.491Z,12.67
2023-03-26T21:38:06.036Z,12.58
2023-03-26T21:43:06.827Z,12.61
2023-03-26T21:48:04.544Z,12.59
2023-03-26T21:53:03.311Z,12.68
2023-03-26T21:58:04.137Z,12.61
2023-03-26T22:03:06.366Z,12.68
2023-03-26T22:08:04.512Z,12.61
2023-03-26T22:13:06.418Z,12.58
2023-03-26T22:18:04.214Z,12.47
2023-03-26T22:23:03.359Z,12.41
2023-03-26T22:28:06.378Z,12.64
2023-03-26T22:33:08.492Z,12.56
2023-03-26T22:38:09.238Z,12.67
2023-03-26T22:43:07.663Z,12.52
2023-03-26T22:48:05.061Z,12.59
2023-03-26T22:53:03.890Z,12.32
2023-03-26T22:58:04.625Z,12.41
2023-03-26T23:03:04.935Z,12.63
2023-03-26T23:08:03.089Z,12.47
2023-03-26T23:13:36.042Z,12.40
2023-03-26T23:18:34.701Z,11.93
2023-03-26T23:23:33.426Z,11.38
2023-03-26T23:28:32.159Z,10.80
2023-03-26T23:33:31.789Z,11.20
2023-03-26T23:38:44.156Z,11.28
2023-03-26T23:43:54.145Z,11.27
2023-03-26T23:48:55.157Z,11.56
2023-03-26T23:53:55.580Z,11.51
2023-03-26T23:58:57.109Z,11.41
